createdAt,value
2019-03-28T00:02:28.368Z,7.73
2019-03-28T00:04:59.102Z,8.13
2019-03-28T00:07:29.817Z,7.27
2019-03-28T00:10:00.601Z,7.30
2019-03-28T00:12:31.360Z,7.47
2019-03-28T00:15:02.181Z,7.17
2019-03-28T00:17:33.068Z,7.87
2019-03-28T00:20:04.407Z,7.20
2019-03-28T00:22:49.491Z,7.77
2019-03-28T00:25:20.269Z,7.17
2019-03-28T00:27:51.085Z,8.97
2019-03-28T00:30:22.450Z,7.60
2019-03-28T00:32:53.347Z,7.13
2019-03-28T00:35:24.087Z,7.83
2019-03-28T00:37:54.961Z,7.10
2019-03-28T00:40:25.619Z,6.83
2019-03-28T00:42:56.354Z,7.90
2019-03-28T00:45:27.113Z,7.37
2019-03-28T00:47:57.888Z,7.90
2019-03-28T00:50:28.526Z,8.13
2019-03-28T00:52:59.422Z,7.90
2019-03-28T00:55:30.159Z,7.80
2019-03-28T00:58:00.870Z,7.77
2019-03-28T01:00:31.776Z,8.07
2019-03-28T01:03:02.561Z,8.63
2019-03-28T01:05:33.389Z,7.83
2019-03-28T01:08:04.123Z,8.37
2019-03-28T01:10:34.881Z,8.67
2019-03-28T01:13:05.576Z,8.37
2019-03-28T01:15:36.381Z,8.37
2019-03-28T01:18:07.069Z,9.00
2019-03-28T01:20:37.653Z,8.73
2019-03-28T01:23:08.342Z,9.17
2019-03-28T01:25:39.043Z,8.57
2019-03-28T01:28:09.638Z,10.07
2019-03-28T01:30:40.348Z,8.93
2019-03-28T01:33:11.087Z,10.20
2019-03-28T01:35:41.914Z,8.30
2019-03-28T01:38:12.716Z,10.27
2019-03-28T01:40:43.477Z,9.43
2019-03-28T01:43:14.285Z,9.93
2019-03-28T01:45:45.049Z,10.57
2019-03-28T01:48:15.810Z,9.90
2019-03-28T01:50:46.567Z,10.07
2019-03-28T01:53:17.260Z,10.07
2019-03-28T01:55:48.040Z,10.53
2019-03-28T01:58:19.370Z,10.43
2019-03-28T02:00:50.250Z,10.27
2019-03-28T02:03:21.013Z,10.53
2019-03-28T02:05:51.842Z,10.93
2019-03-28T02:08:24.881Z,11.20
2019-03-28T02:10:55.146Z,10.73
2019-03-28T02:13:25.983Z,10.70
2019-03-28T02:15:56.766Z,11.37
2019-03-28T02:18:27.528Z,11.20
2019-03-28T02:20:58.306Z,11.60
2019-03-28T02:23:28.974Z,11.40
2019-03-28T02:25:59.621Z,11.03
2019-03-28T02:28:30.305Z,11.20
2019-03-28T02:31:01.001Z,11.37
2019-03-28T02:33:31.750Z,11.67
2019-03-28T02:36:02.662Z,11.10
2019-03-28T02:38:33.433Z,11.80
2019-03-28T02:41:04.263Z,11.33
2019-03-28T02:43:35.083Z,10.67
2019-03-28T02:46:05.882Z,11.00
2019-03-28T02:48:36.610Z,12.07
2019-03-28T02:51:07.404Z,11.07
2019-03-28T02:53:38.180Z,11.63
2019-03-28T02:56:09.032Z,12.00
2019-03-28T02:58:39.825Z,11.50
2019-03-28T03:01:10.501Z,10.67
2019-03-28T03:03:41.117Z,11.93
2019-03-28T03:06:11.798Z,12.40
2019-03-28T03:08:42.634Z,10.80
2019-03-28T03:11:13.454Z,11.93
2019-03-28T03:13:44.315Z,13.30
2019-03-28T03:16:16.474Z,12.50
2019-03-28T03:18:47.339Z,11.33
2019-03-28T03:21:18.083Z,13.10
2019-03-28T03:23:49.045Z,11.47
2019-03-28T03:26:19.829Z,11.37
2019-03-28T03:28:50.651Z,13.03
2019-03-28T03:31:22.210Z,11.10
2019-03-28T03:33:53.360Z,12.03
2019-03-28T03:36:24.055Z,12.70
2019-03-28T03:38:54.646Z,13.47
2019-03-28T03:41:25.364Z,12.00
2019-03-28T03:43:56.032Z,12.03
2019-03-28T03:46:27.493Z,12.30
2019-03-28T03:48:58.832Z,12.67
2019-03-28T03:51:29.572Z,13.17
2019-03-28T03:54:00.275Z,12.23
2019-03-28T03:56:31.136Z,12.30
2019-03-28T03:59:02.585Z,13.63
2019-03-28T04:01:33.430Z,12.93
2019-03-28T04:04:04.226Z,12.97
2019-03-28T04:06:35.011Z,12.60
2019-03-28T04:09:06.678Z,12.60
2019-03-28T04:11:40.207Z,12.37
2019-03-28T04:14:11.046Z,13.67
2019-03-28T04:16:41.890Z,13.20
2019-03-28T04:19:12.670Z,13.03
2019-03-28T04:21:43.738Z,12.70
2019-03-28T04:24:14.838Z,13.33
2019-03-28T04:26:45.613Z,12.57
2019-03-28T04:29:19.629Z,13.00
2019-03-28T04:31:50.584Z,13.07
2019-03-28T04:34:21.387Z,14.50
2019-03-28T04:36:52.381Z,14.10
2019-03-28T04:39:23.333Z,12.87
2019-03-28T04:41:54.019Z,14.17
2019-03-28T04:44:24.829Z,13.93
2019-03-28T04:46:55.716Z,13.73
2019-03-28T04:49:26.536Z,12.40
2019-03-28T04:51:57.309Z,13.60
2019-03-28T04:54:28.077Z,13.47
2019-03-28T04:56:59.018Z,13.03
2019-03-28T04:59:30.018Z,13.17
2019-03-28T05:02:03.498Z,13.80
2019-03-28T05:04:33.186Z,12.87
2019-03-28T05:07:04.075Z,13.33
2019-03-28T05:09:35.499Z,13.60
2019-03-28T05:12:06.397Z,13.83
2019-03-28T05:14:37.161Z,14.17
2019-03-28T05:17:08.327Z,13.23
2019-03-28T05:19:39.080Z,12.60
2019-03-28T05:22:09.894Z,13.00
2019-03-28T05:24:40.653Z,13.00
2019-03-28T05:27:11.578Z,13.13
2019-03-28T05:29:42.398Z,13.03
2019-03-28T05:32:13.265Z,12.40
2019-03-28T05:34:44.018Z,14.10
2019-03-28T05:37:14.772Z,13.20
2019-03-28T05:39:45.700Z,13.23
2019-03-28T05:42:16.544Z,13.73
2019-03-28T05:44:47.404Z,14.50
2019-03-28T05:47:18.133Z,12.83
2019-03-28T05:49:49.630Z,14.03
2019-03-28T05:52:20.673Z,14.53
2019-03-28T05:54:52.014Z,12.60
2019-03-28T05:57:25.106Z,13.73
2019-03-28T05:59:56.292Z,12.90
2019-03-28T06:02:27.139Z,13.93
2019-03-28T06:04:57.833Z,13.70
2019-03-28T06:07:28.661Z,13.13
2019-03-28T06:09:59.584Z,13.90
2019-03-28T06:12:30.481Z,12.57
2019-03-28T06:15:04.070Z,13.37
2019-03-28T06:17:35.770Z,13.03
2019-03-28T06:20:07.197Z,13.97
2019-03-28T06:22:37.932Z,13.07
2019-03-28T06:25:09.624Z,14.30
2019-03-28T06:27:40.998Z,13.57
2019-03-28T06:30:11.846Z,12.47
2019-03-28T06:32:43.573Z,13.13
2019-03-28T06:35:14.654Z,12.23
2019-03-28T06:37:45.606Z,13.43
2019-03-28T06:40:16.396Z,12.87
2019-03-28T06:42:50.183Z,12.87
2019-03-28T06:45:21.097Z,11.77
2019-03-28T06:47:51.869Z,13.03
2019-03-28T06:50:22.722Z,13.47
2019-03-28T06:52:53.514Z,12.37
2019-03-28T06:55:25.050Z,13.20
2019-03-28T06:57:56.601Z,11.67
2019-03-28T07:00:27.389Z,11.83
2019-03-28T07:02:58.246Z,12.17
2019-03-28T07:05:29.098Z,13.33
2019-03-28T07:07:59.870Z,12.40
2019-03-28T07:10:30.555Z,11.90
2019-03-28T07:13:01.329Z,11.00
2019-03-28T07:15:32.077Z,10.80
2019-03-28T07:18:02.653Z,11.13
2019-03-28T07:20:33.400Z,9.77
2019-03-28T07:23:04.199Z,10.53
2019-03-28T07:25:34.870Z,10.60
2019-03-28T07:28:06.500Z,10.90
2019-03-28T07:30:37.601Z,10.47
2019-03-28T07:33:08.277Z,11.07
2019-03-28T07:35:38.948Z,10.53
2019-03-28T07:38:09.820Z,11.63
2019-03-28T07:40:40.493Z,10.67
2019-03-28T07:43:13.779Z,9.93
2019-03-28T07:45:44.725Z,10.47
2019-03-28T07:48:15.346Z,10.90
2019-03-28T07:50:46.365Z,10.93
2019-03-28T07:53:19.686Z,10.17
2019-03-28T07:55:49.699Z,10.00
2019-03-28T07:58:20.442Z,9.83
2019-03-28T08:00:51.217Z,9.70
2019-03-28T08:03:22.042Z,10.47
2019-03-28T08:05:52.725Z,10.77
2019-03-28T08:08:23.353Z,9.63
2019-03-28T08:10:54.158Z,9.27
2019-03-28T08:13:25.087Z,9.13
2019-03-28T08:15:55.875Z,8.60
2019-03-28T08:18:26.650Z,9.07
2019-03-28T08:20:57.353Z,8.50
2019-03-28T08:23:28.052Z,9.50
2019-03-28T08:25:58.749Z,9.23
2019-03-28T08:28:29.570Z,9.47
2019-03-28T08:31:00.409Z,9.20
2019-03-28T08:33:32.447Z,10.40
2019-03-28T08:36:04.272Z,9.70
2019-03-28T08:38:37.696Z,9.53
2019-03-28T08:41:08.407Z,8.40
2019-03-28T08:43:39.150Z,8.90
2019-03-28T08:46:09.931Z,8.17
2019-03-28T08:48:40.719Z,8.37
2019-03-28T08:51:11.437Z,7.03
2019-03-28T08:53:42.238Z,8.03
2019-03-28T08:56:13.025Z,8.97
2019-03-28T08:58:43.739Z,8.10
2019-03-28T09:01:14.448Z,8.50
2019-03-28T09:03:45.054Z,8.47
2019-03-28T09:06:17.091Z,8.47
2019-03-28T09:08:48.242Z,8.37
2019-03-28T09:11:21.452Z,9.33
2019-03-28T09:13:51.543Z,8.03
2019-03-28T09:16:22.269Z,8.30
2019-03-28T09:18:53.012Z,7.20
2019-03-28T09:21:23.675Z,9.30
2019-03-28T09:23:54.487Z,9.20
2019-03-28T09:26:29.059Z,8.50
2019-03-28T09:28:59.882Z,8.97
2019-03-28T09:31:30.917Z,8.17
2019-03-28T09:34:06.674Z,8.87
2019-03-28T09:36:40.271Z,7.30
2019-03-28T09:39:14.150Z,7.60
2019-03-28T09:41:45.381Z,6.70
2019-03-28T09:44:20.825Z,6.47
2019-03-28T09:46:52.186Z,6.37
2019-03-28T09:49:23.568Z,6.67
2019-03-28T09:51:54.592Z,6.77
2019-03-28T09:54:25.952Z,6.73
2019-03-28T09:56:57.067Z,6.87
2019-03-28T09:59:30.413Z,6.77
2019-03-28T10:02:01.410Z,7.23
2019-03-28T10:04:32.720Z,6.60
2019-03-28T10:07:03.443Z,7.80
2019-03-28T10:09:34.394Z,7.30
2019-03-28T10:12:05.214Z,7.40
2019-03-28T10:14:36.526Z,7.30
2019-03-28T10:17:07.405Z,6.73
2019-03-28T10:19:38.197Z,6.87
2019-03-28T10:22:08.978Z,6.90
2019-03-28T10:24:39.772Z,7.07
2019-03-28T10:27:10.564Z,6.93
2019-03-28T10:29:41.304Z,7.53
2019-03-28T10:32:12.073Z,7.03
2019-03-28T10:34:42.860Z,7.03
2019-03-28T10:37:13.728Z,7.40
2019-03-28T10:39:44.478Z,8.03
2019-03-28T10:42:15.379Z,7.57
2019-03-28T10:44:46.408Z,7.87
2019-03-28T10:47:17.304Z,8.37
2019-03-28T10:49:48.191Z,6.93
2019-03-28T10:52:18.923Z,7.70
2019-03-28T10:54:50.510Z,6.93
2019-03-28T10:57:29.861Z,7.63
2019-03-28T10:59:53.814Z,7.60
2019-03-28T11:02:24.599Z,8.17
2019-03-28T11:04:55.338Z,8.27
2019-03-28T11:07:26.138Z,7.30
2019-03-28T11:09:56.955Z,7.90
2019-03-28T11:12:27.688Z,8.30
2019-03-28T11:14:58.576Z,7.70
2019-03-28T11:17:29.357Z,8.40
2019-03-28T11:20:00.301Z,8.83
2019-03-28T11:22:31.118Z,8.00
2019-03-28T11:25:01.933Z,8.57
2019-03-28T11:27:32.745Z,8.73
2019-03-28T11:30:03.701Z,8.03
2019-03-28T11:32:35.913Z,8.47
2019-03-28T11:35:07.425Z,8.97
2019-03-28T11:37:39.280Z,10.03
2019-03-28T11:40:11.419Z,8.40
2019-03-28T11:42:42.462Z,9.93
2019-03-28T11:45:17.412Z,9.77
2019-03-28T11:47:48.641Z,8.73
2019-03-28T11:50:19.453Z,9.10
2019-03-28T11:52:50.293Z,9.90
2019-03-28T11:55:20.980Z,10.05
2019-03-28T11:57:51.908Z,9.33
2019-03-28T12:00:22.831Z,9.80
2019-03-28T12:02:53.603Z,8.70
2019-03-28T12:05:24.426Z,9.37
2019-03-28T12:07:55.249Z,9.27
2019-03-28T12:10:26.193Z,9.17
2019-03-28T12:12:57.097Z,9.63
2019-03-28T12:15:27.809Z,9.60
2019-03-28T12:17:58.733Z,8.73
2019-03-28T12:20:29.554Z,8.93
2019-03-28T12:23:00.415Z,9.85
2019-03-28T12:25:31.192Z,9.48
2019-03-28T12:28:02.018Z,8.87
2019-03-28T12:30:32.749Z,9.87
2019-03-28T12:33:03.482Z,9.30
2019-03-28T12:35:34.242Z,10.17
2019-03-28T12:38:05.008Z,10.43
2019-03-28T12:40:35.810Z,9.83
2019-03-28T12:43:06.518Z,9.20
2019-03-28T12:45:37.294Z,9.13
2019-03-28T12:48:07.974Z,9.17
2019-03-28T12:50:38.623Z,8.80
2019-03-28T12:53:09.452Z,9.80
2019-03-28T12:55:40.126Z,9.67
2019-03-28T12:58:10.958Z,9.20
2019-03-28T13:00:41.877Z,9.03
2019-03-28T13:03:12.632Z,9.03
2019-03-28T13:05:43.362Z,9.03
2019-03-28T13:08:14.198Z,9.90
2019-03-28T13:10:44.990Z,8.90
2019-03-28T13:13:15.719Z,9.57
2019-03-28T13:15:46.761Z,9.80
2019-03-28T13:18:17.546Z,9.63
2019-03-28T13:20:48.303Z,9.00
2019-03-28T13:23:19.171Z,10.00
2019-03-28T13:25:50.149Z,9.10
2019-03-28T13:28:20.961Z,10.20
2019-03-28T13:30:53.642Z,9.60
2019-03-28T13:33:25.166Z,8.35
2019-03-28T13:35:56.126Z,8.90
2019-03-28T13:38:26.946Z,10.10
2019-03-28T13:40:57.690Z,8.73
2019-03-28T13:43:28.421Z,10.18
2019-03-28T13:45:59.111Z,8.95
2019-03-28T13:48:29.890Z,9.28
2019-03-28T13:51:00.513Z,8.98
2019-03-28T13:53:39.260Z,8.90
2019-03-28T13:56:03.938Z,10.32
2019-03-28T13:58:34.876Z,9.73
2019-03-28T14:01:08.203Z,9.18
2019-03-28T14:03:41.112Z,9.08
2019-03-28T14:06:12.456Z,9.03
2019-03-28T14:08:43.242Z,8.30
2019-03-28T14:11:13.998Z,10.32
2019-03-28T14:13:44.775Z,9.03
2019-03-28T14:16:15.565Z,8.45
2019-03-28T14:18:46.429Z,9.33
2019-03-28T14:21:17.146Z,9.00
2019-03-28T14:23:48.095Z,10.05
2019-03-28T14:26:19.176Z,9.23
2019-03-28T14:28:50.440Z,8.65
2019-03-28T14:31:21.268Z,9.38
2019-03-28T14:33:51.954Z,9.65
2019-03-28T14:36:25.140Z,9.08
2019-03-28T14:38:55.504Z,9.10
2019-03-28T14:41:26.334Z,9.33
2019-03-28T14:43:57.074Z,8.45
2019-03-28T14:46:27.969Z,8.15
2019-03-28T14:48:58.889Z,8.78
2019-03-28T14:51:29.696Z,8.65
2019-03-28T14:54:00.389Z,9.25
2019-03-28T14:56:31.249Z,9.43
2019-03-28T14:59:03.922Z,8.85
2019-03-28T15:01:34.801Z,9.30
2019-03-28T15:04:05.518Z,9.15
2019-03-28T15:06:36.310Z,7.97
2019-03-28T15:09:09.791Z,8.40
2019-03-28T15:11:40.858Z,8.63
2019-03-28T15:14:11.623Z,8.03
2019-03-28T15:16:42.282Z,7.30
2019-03-28T15:19:13.286Z,8.05
2019-03-28T15:21:43.920Z,7.58
2019-03-28T15:24:15.732Z,8.08
2019-03-28T15:26:46.883Z,7.33
2019-03-28T15:29:17.692Z,7.92
2019-03-28T15:31:48.593Z,7.40
2019-03-28T15:34:19.368Z,7.78
2019-03-28T15:36:50.151Z,7.65
2019-03-28T15:39:21.028Z,7.15
2019-03-28T15:41:51.828Z,7.78
2019-03-28T15:44:22.533Z,7.87
2019-03-28T15:46:53.643Z,7.37
2019-03-28T15:49:24.447Z,6.72
2019-03-28T15:51:55.054Z,7.65
2019-03-28T15:54:25.774Z,8.28
2019-03-28T15:56:58.648Z,7.67
2019-03-28T15:59:28.762Z,7.17
2019-03-28T16:02:00.035Z,6.90
2019-03-28T16:04:30.869Z,7.35
2019-03-28T16:07:01.682Z,8.55
2019-03-28T16:09:32.525Z,10.68
2019-03-28T16:12:03.367Z,8.40
2019-03-28T16:14:34.066Z,9.63
2019-03-28T16:17:04.945Z,9.70
2019-03-28T16:19:35.783Z,8.58
2019-03-28T16:22:06.558Z,8.88
2019-03-28T16:24:37.374Z,8.40
2019-03-28T16:27:08.149Z,8.18
2019-03-28T16:29:38.946Z,8.23
2019-03-28T16:32:09.667Z,7.37
2019-03-28T16:34:43.374Z,7.22
2019-03-28T16:37:12.963Z,7.35
2019-03-28T16:39:43.749Z,6.62
2019-03-28T16:42:15.746Z,6.60
2019-03-28T16:44:46.657Z,7.55
2019-03-28T16:47:17.472Z,7.65
2019-03-28T16:49:48.170Z,8.08
2019-03-28T16:52:18.828Z,9.60
2019-03-28T16:54:49.585Z,9.28
2019-03-28T16:57:20.260Z,8.58
2019-03-28T16:59:51.007Z,10.18
2019-03-28T17:02:21.565Z,8.60
2019-03-28T17:04:52.143Z,9.68
2019-03-28T17:07:25.631Z,8.07
2019-03-28T17:09:57.013Z,8.67
2019-03-28T17:12:27.503Z,10.70
2019-03-28T17:14:57.927Z,9.70
2019-03-28T17:17:28.322Z,9.40
2019-03-28T17:19:59.250Z,8.77
2019-03-28T17:22:29.951Z,7.77
2019-03-28T17:25:00.721Z,10.00
2019-03-28T17:27:31.517Z,9.27
2019-03-28T17:30:02.367Z,12.20
2019-03-28T17:32:36.427Z,11.70
2019-03-28T17:35:05.415Z,8.03
2019-03-28T17:37:36.253Z,8.07
2019-03-28T17:40:06.966Z,8.03
2019-03-28T17:42:37.415Z,7.13
2019-03-28T17:45:08.507Z,6.70
2019-03-28T17:47:39.274Z,6.80
2019-03-28T17:50:10.349Z,9.67
2019-03-28T17:52:41.199Z,10.03
2019-03-28T17:55:11.939Z,10.27
2019-03-28T17:57:42.422Z,8.97
2019-03-28T18:00:14.029Z,9.57
2019-03-28T18:02:44.921Z,10.93
2019-03-28T18:05:16.050Z,10.47
2019-03-28T18:07:47.039Z,13.03
2019-03-28T18:10:20.412Z,9.03
2019-03-28T18:12:52.063Z,11.07
2019-03-28T18:15:22.964Z,13.60
2019-03-28T18:17:55.811Z,14.20
2019-03-28T18:20:32.685Z,17.07
2019-03-28T18:23:03.990Z,16.93
2019-03-28T18:25:34.525Z,16.83
2019-03-28T18:28:05.216Z,19.20
2019-03-28T18:30:37.445Z,17.90
2019-03-28T18:33:08.085Z,18.80
2019-03-28T18:35:38.519Z,20.43
2019-03-28T18:38:09.147Z,23.40
2019-03-28T18:40:39.623Z,21.67
2019-03-28T18:43:10.028Z,27.33
2019-03-28T18:45:40.787Z,29.23
2019-03-28T18:48:11.609Z,30.00
2019-03-28T18:50:42.325Z,30.70
2019-03-28T18:53:13.612Z,31.23
2019-03-28T18:55:47.467Z,31.77
2019-03-28T18:58:47.458Z,27.53
2019-03-28T19:01:25.415Z,30.00
2019-03-28T19:03:56.367Z,27.30
2019-03-28T19:06:27.056Z,30.93
2019-03-28T19:08:59.713Z,29.20
2019-03-28T19:11:30.545Z,31.43
2019-03-28T19:14:03.071Z,24.07
2019-03-28T19:16:40.625Z,22.27
2019-03-28T19:19:12.740Z,19.23
2019-03-28T19:21:46.637Z,16.97
2019-03-28T19:24:22.029Z,14.67
2019-03-28T19:27:06.931Z,14.50
2019-03-28T19:29:46.596Z,14.60
2019-03-28T19:32:37.457Z,15.13
2019-03-28T19:35:14.884Z,15.20
2019-03-28T19:37:58.295Z,15.03
2019-03-28T19:40:38.219Z,13.83
2019-03-28T19:43:23.328Z,13.83
2019-03-28T19:46:01.365Z,15.37
2019-03-28T19:48:41.439Z,11.57
2019-03-28T19:51:22.789Z,9.77
2019-03-28T19:53:59.870Z,8.47
2019-03-28T19:56:39.251Z,7.73
2019-03-28T19:59:14.972Z,7.57
2019-03-28T20:01:58.454Z,6.77
2019-03-28T20:04:49.289Z,7.47
2019-03-28T20:07:24.127Z,6.13
2019-03-28T20:10:15.771Z,7.37
2019-03-28T20:12:45.600Z,6.50
2019-03-28T20:15:26.893Z,7.13
2019-03-28T20:18:07.430Z,6.90
2019-03-28T20:20:45.507Z,7.60
2019-03-28T20:23:28.245Z,8.00
2019-03-28T20:26:10.821Z,9.23
2019-03-28T20:28:45.842Z,9.50
2019-03-28T20:31:29.711Z,8.27
2019-03-28T20:34:12.691Z,8.10
2019-03-28T20:36:52.661Z,7.53
2019-03-28T20:39:32.945Z,8.30
2019-03-28T20:42:14.088Z,7.17
2019-03-28T20:44:51.252Z,7.20
2019-03-28T20:47:34.418Z,7.97
2019-03-28T20:50:14.001Z,7.33
2019-03-28T20:53:04.367Z,7.20
2019-03-28T20:55:38.625Z,7.73
2019-03-28T20:58:22.956Z,6.30
2019-03-28T21:01:06.596Z,6.87
2019-03-28T21:03:55.210Z,7.73
2019-03-28T21:06:31.302Z,7.67
2019-03-28T21:09:06.982Z,6.60
2019-03-28T21:11:48.903Z,7.07
2019-03-28T21:14:25.840Z,7.43
2019-03-28T21:17:06.132Z,6.97
2019-03-28T21:19:45.053Z,7.10
2019-03-28T21:22:15.896Z,7.00
2019-03-28T21:24:54.140Z,7.03
2019-03-28T21:27:37.263Z,7.27
2019-03-28T21:30:18.476Z,7.13
2019-03-28T21:32:55.977Z,7.87
2019-03-28T21:35:33.562Z,6.97
2019-03-28T21:38:15.366Z,8.70
2019-03-28T21:41:16.432Z,7.40
2019-03-28T21:43:59.487Z,7.90
2019-03-28T21:46:38.576Z,9.63
2019-03-28T21:49:36.792Z,10.03
2019-03-28T21:52:16.428Z,9.63
2019-03-28T21:54:51.839Z,9.40
2019-03-28T21:57:22.709Z,10.73
2019-03-28T21:59:54.295Z,9.90
2019-03-28T22:02:25.093Z,9.13
2019-03-28T22:04:56.070Z,7.30
2019-03-28T22:07:26.808Z,7.87
2019-03-28T22:09:57.544Z,8.17
2019-03-28T22:12:28.298Z,7.37
2019-03-28T22:14:59.014Z,8.80
2019-03-28T22:17:29.727Z,7.17
2019-03-28T22:20:00.517Z,6.80
2019-03-28T22:22:31.337Z,7.93
2019-03-28T22:25:02.153Z,7.87
2019-03-28T22:27:32.954Z,8.07
2019-03-28T22:30:04.022Z,6.90
2019-03-28T22:32:34.749Z,8.77
2019-03-28T22:35:06.153Z,7.60
2019-03-28T22:37:36.922Z,7.67
2019-03-28T22:40:11.916Z,9.20
2019-03-28T22:42:41.786Z,9.10
2019-03-28T22:45:14.754Z,10.80
2019-03-28T22:47:45.709Z,8.97
2019-03-28T22:50:16.748Z,9.20
2019-03-28T22:52:47.529Z,7.93
2019-03-28T22:55:18.391Z,7.80
2019-03-28T22:57:49.256Z,8.77
2019-03-28T23:00:21.360Z,9.27
2019-03-28T23:02:52.071Z,8.43
2019-03-28T23:05:22.863Z,7.93
2019-03-28T23:07:53.662Z,7.73
2019-03-28T23:10:24.351Z,7.27
2019-03-28T23:12:54.826Z,6.70
2019-03-28T23:15:25.618Z,7.07
2019-03-28T23:17:56.356Z,7.43
2019-03-28T23:20:27.077Z,6.13
2019-03-28T23:22:57.865Z,6.97
2019-03-28T23:25:28.518Z,6.53
2019-03-28T23:27:59.155Z,5.77
2019-03-28T23:30:30.020Z,6.47
2019-03-28T23:33:00.637Z,6.03
2019-03-28T23:35:31.362Z,6.30
2019-03-28T23:38:02.158Z,6.13
2019-03-28T23:40:32.833Z,6.73
2019-03-28T23:43:03.251Z,6.10
2019-03-28T23:45:34.005Z,6.97
2019-03-28T23:48:04.841Z,6.60
2019-03-28T23:50:35.543Z,6.70
2019-03-28T23:53:06.207Z,6.73
2019-03-28T23:55:36.859Z,6.70
2019-03-28T23:58:07.755Z,6.27
